createdAt,value
2019-04-14T00:01:30.468Z,99.90
2019-04-14T00:04:09.914Z,99.90
2019-04-14T00:06:42.142Z,99.90
2019-04-14T00:09:18.530Z,99.90
2019-04-14T00:11:50.369Z,99.90
2019-04-14T00:14:20.816Z,99.90
2019-04-14T00:16:51.582Z,99.90
2019-04-14T00:19:21.719Z,99.90
2019-04-14T00:21:56.590Z,99.90
2019-04-14T00:24:31.257Z,99.90
2019-04-14T00:27:07.087Z,99.90
2019-04-14T00:29:39.247Z,99.90
2019-04-14T00:32:13.994Z,99.90
2019-04-14T00:35:02.087Z,99.90
2019-04-14T00:37:55.816Z,99.90
2019-04-14T00:40:45.437Z,99.90
2019-04-14T00:43:35.530Z,99.90
2019-04-14T00:46:38.837Z,99.90
2019-04-14T00:49:33.710Z,99.90
2019-04-14T00:52:31.858Z,99.90
2019-04-14T00:58:49.759Z,99.90
2019-04-14T01:01:26.570Z,99.90
2019-04-14T01:04:10.791Z,99.90
2019-04-14T01:11:18.141Z,99.90
2019-04-14T01:14:08.001Z,99.90
2019-04-14T04:20:56.654Z,99.90
2019-04-14T04:27:05.114Z,99.90
2019-04-14T04:30:21.432Z,99.90
2019-04-14T04:40:48.467Z,99.90
2019-04-14T04:44:11.625Z,99.90
2019-04-14T04:46:45.889Z,99.90
2019-04-14T04:49:24.230Z,99.90
2019-04-14T04:51:53.076Z,99.90
2019-04-14T04:54:26.165Z,99.90
2019-04-14T04:56:56.619Z,99.90
2019-04-14T04:59:27.770Z,99.90
2019-04-14T05:02:08.980Z,99.90
2019-04-14T05:04:43.742Z,99.90
2019-04-14T05:07:16.688Z,99.90
2019-04-14T05:10:24.224Z,99.90
2019-04-14T05:13:14.162Z,99.90
2019-04-14T05:15:59.815Z,99.90
2019-04-14T05:18:46.253Z,99.90
2019-04-14T05:22:04.922Z,99.90
2019-04-14T05:24:37.492Z,99.90
2019-04-14T05:27:07.870Z,99.90
2019-04-14T05:29:45.083Z,99.90
2019-04-14T05:32:26.087Z,99.90
2019-04-14T05:34:56.553Z,99.90
2019-04-14T05:37:33.723Z,99.90
2019-04-14T05:40:18.799Z,99.90
2019-04-14T05:42:45.157Z,99.90
2019-04-14T05:45:21.916Z,99.90
2019-04-14T05:47:52.263Z,99.90
2019-04-14T05:50:57.780Z,99.90
2019-04-14T05:53:30.800Z,99.90
2019-04-14T05:56:03.528Z,99.90
2019-04-14T05:58:40.546Z,99.90
2019-04-14T06:01:11.304Z,99.90
2019-04-14T06:03:41.442Z,99.90
2019-04-14T06:06:11.182Z,99.90
2019-04-14T06:08:40.895Z,99.90
2019-04-14T06:11:10.685Z,99.90
2019-04-14T06:13:40.503Z,99.90
2019-04-14T06:16:10.220Z,99.90
2019-04-14T06:18:39.952Z,99.90
2019-04-14T06:21:12.319Z,99.90
2019-04-14T06:23:48.212Z,99.90
2019-04-14T06:26:19.363Z,99.90
2019-04-14T06:29:14.978Z,99.90
2019-04-14T06:32:03.484Z,99.90
2019-04-14T06:35:00.646Z,99.90
2019-04-14T06:37:50.922Z,99.90
2019-04-14T06:40:21.428Z,99.90
2019-04-14T06:43:05.583Z,99.90
2019-04-14T06:45:31.148Z,99.90
2019-04-14T06:48:00.868Z,99.90
2019-04-14T06:50:30.518Z,99.90
2019-04-14T06:53:00.253Z,99.90
2019-04-14T06:55:30.023Z,99.90
2019-04-14T06:57:59.871Z,99.90
2019-04-14T07:00:29.493Z,99.90
2019-04-14T07:02:59.115Z,99.90
2019-04-14T07:05:28.725Z,99.90
2019-04-14T07:07:58.353Z,99.90
2019-04-14T07:10:28.038Z,99.90
2019-04-14T07:12:57.673Z,99.90
2019-04-14T07:15:27.361Z,99.90
2019-04-14T07:17:57.025Z,99.90
2019-04-14T07:20:28.753Z,99.90
2019-04-14T07:22:58.964Z,99.90
2019-04-14T07:25:28.718Z,99.90
2019-04-14T07:28:04.212Z,99.90
2019-04-14T07:31:01.792Z,99.90
2019-04-14T07:33:54.205Z,99.90
2019-04-14T07:36:34.950Z,99.90
2019-04-14T07:39:23.050Z,99.90
2019-04-14T07:42:05.410Z,99.90
2019-04-14T07:45:02.370Z,99.90
2019-04-14T07:47:42.892Z,99.90
2019-04-14T07:50:30.239Z,99.90
2019-04-14T07:53:08.497Z,99.90
2019-04-14T07:55:57.077Z,99.90
2019-04-14T07:58:39.597Z,99.90
2019-04-14T08:01:40.256Z,99.90
2019-04-14T08:04:13.513Z,99.90
2019-04-14T08:06:47.506Z,99.90
2019-04-14T08:09:19.318Z,99.90
2019-04-14T08:11:53.753Z,99.90
2019-04-14T08:14:26.450Z,99.90
2019-04-14T08:16:56.146Z,99.90
2019-04-14T08:19:26.246Z,99.90
2019-04-14T08:21:56.098Z,99.90
2019-04-14T08:24:28.827Z,99.90
2019-04-14T08:27:19.889Z,99.70
2019-04-14T08:29:52.994Z,98.90
2019-04-14T08:32:25.353Z,99.80
2019-04-14T08:34:55.232Z,99.90
2019-04-14T08:37:24.904Z,99.90
2019-04-14T08:39:54.569Z,99.50
2019-04-14T08:43:01.059Z,99.50
2019-04-14T08:45:46.522Z,99.50
2019-04-14T08:48:24.079Z,98.50
2019-04-14T08:51:03.905Z,99.10
2019-04-14T08:53:44.221Z,98.40
2019-04-14T08:56:21.833Z,97.90
2019-04-14T08:59:19.125Z,99.20
2019-04-14T09:02:22.853Z,97.90
2019-04-14T09:05:14.353Z,98.30
2019-04-14T09:08:14.954Z,98.20
2019-04-14T09:10:48.621Z,99.00
2019-04-14T09:13:18.221Z,98.70
2019-04-14T09:18:16.579Z,97.90
2019-04-14T09:20:52.182Z,97.40
2019-04-14T09:23:17.622Z,98.80
2019-04-14T09:25:47.237Z,98.30
2019-04-14T09:28:16.881Z,97.70
2019-04-14T09:30:46.475Z,98.70
2019-04-14T09:33:16.120Z,98.30
2019-04-14T09:35:45.761Z,98.30
2019-04-14T09:38:15.440Z,98.50
2019-04-14T09:40:45.107Z,98.60
2019-04-14T09:43:14.789Z,97.50
2019-04-14T09:45:44.453Z,97.70
2019-04-14T09:48:14.134Z,97.70
2019-04-14T09:50:44.089Z,98.80
2019-04-14T09:53:13.824Z,97.70
2019-04-14T09:55:43.544Z,98.30
2019-04-14T09:58:13.236Z,99.80
2019-04-14T10:00:43.013Z,97.60
2019-04-14T10:03:12.716Z,97.50
2019-04-14T10:05:42.318Z,98.80
2019-04-14T10:08:12.007Z,97.90
2019-04-14T10:10:41.662Z,98.70
2019-04-14T10:13:11.292Z,97.40
2019-04-14T10:15:41.538Z,97.30
2019-04-14T10:18:11.147Z,97.40
2019-04-14T10:20:40.765Z,97.30
2019-04-14T10:23:10.368Z,96.70
2019-04-14T10:25:40.101Z,97.60
2019-04-14T10:28:09.677Z,96.90
2019-04-14T10:30:39.325Z,97.20
2019-04-14T10:33:08.936Z,97.60
2019-04-14T10:35:38.531Z,96.10
2019-04-14T10:38:08.174Z,98.00
2019-04-14T10:40:37.828Z,98.10
2019-04-14T10:43:07.505Z,97.90
2019-04-14T10:45:37.188Z,97.80
2019-04-14T10:48:06.945Z,94.60
2019-04-14T10:50:36.708Z,96.30
2019-04-14T10:53:07.769Z,95.70
2019-04-14T10:55:37.468Z,96.10
2019-04-14T10:58:07.164Z,96.00
2019-04-14T11:00:36.807Z,96.90
2019-04-14T11:03:06.508Z,95.40
2019-04-14T11:05:45.125Z,93.80
2019-04-14T11:08:14.796Z,95.30
2019-04-14T11:10:44.395Z,95.50
2019-04-14T11:13:14.000Z,95.50
2019-04-14T11:15:43.645Z,94.50
2019-04-14T11:18:13.281Z,94.50
2019-04-14T11:20:43.047Z,94.50
2019-04-14T11:23:12.651Z,92.80
2019-04-14T11:25:42.297Z,92.70
2019-04-14T11:28:12.018Z,93.30
2019-04-14T11:30:41.650Z,94.50
2019-04-14T11:33:28.803Z,93.20
2019-04-14T11:36:20.423Z,93.30
2019-04-14T11:38:58.275Z,91.20
2019-04-14T11:41:27.917Z,92.70
2019-04-14T11:43:57.647Z,90.70
2019-04-14T11:46:27.624Z,92.20
2019-04-14T11:48:57.237Z,90.20
2019-04-14T11:51:26.921Z,87.40
2019-04-14T11:53:56.541Z,91.10
2019-04-14T11:56:26.125Z,90.80
2019-04-14T11:58:55.806Z,87.10
2019-04-14T12:01:41.672Z,91.40
2019-04-14T12:04:20.775Z,91.70
2019-04-14T12:07:09.363Z,90.90
2019-04-14T12:09:45.035Z,89.20
2019-04-14T12:12:14.725Z,90.00
2019-04-14T12:14:44.385Z,89.30
2019-04-14T12:17:14.040Z,92.70
2019-04-14T12:19:43.728Z,87.30
2019-04-14T12:22:13.309Z,85.50
2019-04-14T12:24:43.001Z,87.10
2019-04-14T12:27:12.670Z,86.60
2019-04-14T12:29:43.287Z,90.40
2019-04-14T12:32:14.959Z,89.90
2019-04-14T12:34:45.021Z,88.00
2019-04-14T12:37:14.658Z,87.90
2019-04-14T12:39:44.329Z,90.50
2019-04-14T12:42:38.668Z,90.70
2019-04-14T12:45:27.188Z,90.10
2019-04-14T12:48:03.187Z,89.00
2019-04-14T12:50:54.358Z,85.40
2019-04-14T12:53:25.971Z,87.20
2019-04-14T12:55:55.535Z,86.90
2019-04-14T12:58:35.290Z,90.90
2019-04-14T13:01:09.068Z,88.30
2019-04-14T13:03:41.984Z,84.50
2019-04-14T13:06:15.010Z,87.00
2019-04-14T13:08:44.812Z,85.40
2019-04-14T13:11:14.442Z,87.90
2019-04-14T13:13:44.109Z,83.90
2019-04-14T13:16:13.815Z,84.10
2019-04-14T13:18:43.425Z,84.70
2019-04-14T13:21:13.054Z,83.30
2019-04-14T13:23:42.701Z,85.90
2019-04-14T13:26:12.349Z,81.70
2019-04-14T13:28:42.054Z,83.40
2019-04-14T13:31:11.622Z,83.40
2019-04-14T13:33:41.304Z,81.70
2019-04-14T13:36:11.157Z,84.30
2019-04-14T13:38:40.794Z,81.60
2019-04-14T13:41:10.419Z,84.60
2019-04-14T13:43:40.070Z,81.20
2019-04-14T13:46:09.693Z,82.60
2019-04-14T13:48:39.316Z,81.60
2019-04-14T13:51:09.005Z,81.60
2019-04-14T13:53:38.764Z,80.90
2019-04-14T13:56:08.386Z,79.50
2019-04-14T13:58:40.605Z,82.60
2019-04-14T14:01:09.430Z,78.70
2019-04-14T14:03:39.081Z,76.80
2019-04-14T14:06:08.913Z,78.20
2019-04-14T14:08:38.607Z,75.80
2019-04-14T14:11:19.377Z,75.00
2019-04-14T14:13:54.490Z,76.20
2019-04-14T14:16:37.875Z,76.60
2019-04-14T14:19:12.792Z,78.10
2019-04-14T14:21:50.223Z,76.40
2019-04-14T14:24:35.537Z,76.30
2019-04-14T14:27:05.808Z,75.60
2019-04-14T14:29:35.457Z,75.30
2019-04-14T14:32:06.776Z,76.00
2019-04-14T14:34:36.782Z,73.80
2019-04-14T14:37:06.443Z,77.70
2019-04-14T14:39:37.541Z,78.60
2019-04-14T14:42:07.212Z,80.00
2019-04-14T14:44:41.550Z,78.30
2019-04-14T14:47:19.813Z,72.00
2019-04-14T14:50:08.583Z,67.40
2019-04-14T14:52:39.500Z,72.10
2019-04-14T14:55:09.310Z,72.00
2019-04-14T14:57:38.988Z,64.20
2019-04-14T15:00:16.884Z,63.30
2019-04-14T15:02:46.516Z,63.00
2019-04-14T15:05:16.209Z,62.80
2019-04-14T15:07:45.862Z,64.80
2019-04-14T15:10:15.491Z,61.50
2019-04-14T15:12:45.111Z,60.50
2019-04-14T15:15:14.763Z,63.30
2019-04-14T15:17:44.416Z,61.10
2019-04-14T15:20:14.117Z,61.30
2019-04-14T15:22:43.772Z,65.20
2019-04-14T15:25:13.973Z,73.80
2019-04-14T15:27:43.549Z,60.00
2019-04-14T15:30:18.037Z,60.80
2019-04-14T15:32:47.820Z,59.90
2019-04-14T15:35:17.336Z,58.80
2019-04-14T15:37:46.893Z,60.10
2019-04-14T15:40:16.613Z,59.80
2019-04-14T15:42:46.127Z,57.80
2019-04-14T15:45:15.675Z,59.40
2019-04-14T15:47:45.213Z,57.40
2019-04-14T15:50:14.738Z,56.70
2019-04-14T15:52:44.294Z,56.90
2019-04-14T15:55:14.807Z,57.70
2019-04-14T15:57:53.435Z,55.30
2019-04-14T16:00:41.899Z,55.90
2019-04-14T16:03:25.462Z,56.90
2019-04-14T16:06:12.472Z,59.00
2019-04-14T16:08:51.587Z,56.00
2019-04-14T16:11:32.354Z,57.30
2019-04-14T16:14:23.477Z,58.30
2019-04-14T16:17:32.516Z,58.30
2019-04-14T16:20:15.865Z,57.20
2019-04-14T16:22:45.823Z,57.40
2019-04-14T16:25:15.705Z,57.30
2019-04-14T16:27:53.196Z,57.40
2019-04-14T16:30:28.989Z,57.70
2019-04-14T16:33:13.729Z,58.70
2019-04-14T16:35:43.450Z,58.50
2019-04-14T16:38:13.087Z,58.30
2019-04-14T16:40:42.739Z,56.90
2019-04-14T16:43:12.345Z,57.30
2019-04-14T16:45:41.942Z,57.80
2019-04-14T16:48:11.590Z,55.90
2019-04-14T16:50:44.033Z,55.80
2019-04-14T16:53:19.041Z,56.70
2019-04-14T16:56:07.343Z,57.10
2019-04-14T16:58:40.206Z,56.40
2019-04-14T17:01:12.849Z,56.30
2019-04-14T17:03:42.618Z,56.30
2019-04-14T17:06:24.910Z,56.50
2019-04-14T17:08:53.949Z,56.30
2019-04-14T17:11:24.239Z,56.20
2019-04-14T17:14:18.716Z,57.30
2019-04-14T17:17:03.632Z,56.90
2019-04-14T17:19:57.182Z,57.80
2019-04-14T17:22:53.457Z,59.00
2019-04-14T17:25:30.800Z,58.70
2019-04-14T17:31:44.596Z,61.70
2019-04-14T17:34:18.555Z,60.40
2019-04-14T17:36:55.739Z,60.90
2019-04-14T17:39:44.459Z,62.00
2019-04-14T17:42:21.695Z,61.20
2019-04-14T17:45:16.014Z,61.60
2019-04-14T17:48:07.248Z,62.30
2019-04-14T17:51:03.488Z,62.40
2019-04-14T17:53:54.820Z,61.40
2019-04-14T17:56:29.785Z,63.50
2019-04-14T17:59:18.086Z,64.50
2019-04-14T18:02:13.299Z,64.10
2019-04-14T18:04:53.973Z,64.40
2019-04-14T18:07:45.292Z,64.80
2019-04-14T18:10:19.987Z,65.50
2019-04-14T18:13:11.314Z,65.50
2019-04-14T18:15:52.200Z,65.30
2019-04-14T18:18:50.821Z,63.60
2019-04-14T18:21:20.612Z,63.50
2019-04-14T18:23:50.321Z,65.50
2019-04-14T18:26:20.045Z,64.60
2019-04-14T18:29:07.474Z,66.80
2019-04-14T18:31:42.502Z,65.10
2019-04-14T18:34:31.039Z,63.90
2019-04-14T18:37:16.663Z,64.90
2019-04-14T18:40:08.262Z,65.20
2019-04-14T18:43:01.284Z,65.30
2019-04-14T18:45:43.028Z,64.20
2019-04-14T18:48:40.797Z,64.20
2019-04-14T18:51:41.198Z,64.60
2019-04-14T18:54:53.790Z,63.80
2019-04-14T18:57:37.733Z,63.00
2019-04-14T19:00:15.343Z,63.80
2019-04-14T19:02:45.060Z,63.10
2019-04-14T19:05:14.815Z,64.90
2019-04-14T19:07:44.454Z,63.10
2019-04-14T19:10:14.456Z,63.50
2019-04-14T19:12:49.950Z,64.10
2019-04-14T19:15:38.501Z,63.80
2019-04-14T19:18:13.308Z,64.40
2019-04-14T19:20:45.767Z,65.00
2019-04-14T19:23:15.542Z,65.20
2019-04-14T19:25:45.634Z,64.40
2019-04-14T19:28:15.542Z,63.80
2019-04-14T19:30:45.267Z,63.90
2019-04-14T19:33:15.029Z,66.50
2019-04-14T19:35:47.741Z,65.00
2019-04-14T19:38:17.403Z,66.30
2019-04-14T19:40:47.151Z,66.40
2019-04-14T19:43:23.601Z,64.90
2019-04-14T19:45:48.088Z,65.40
2019-04-14T19:48:17.874Z,65.90
2019-04-14T19:50:47.515Z,65.50
2019-04-14T19:53:17.233Z,67.20
2019-04-14T19:55:47.472Z,65.80
2019-04-14T19:58:17.164Z,65.90
2019-04-14T20:00:46.983Z,66.40
2019-04-14T20:03:16.642Z,65.90
2019-04-14T20:05:46.313Z,65.50
2019-04-14T20:09:21.105Z,64.70
2019-04-14T20:11:50.850Z,66.60
2019-04-14T20:14:20.575Z,67.40
2019-04-14T20:17:07.181Z,67.20
2019-04-14T20:19:47.927Z,67.00
2019-04-14T20:22:31.422Z,67.40
2019-04-14T20:25:32.850Z,66.30
2019-04-14T20:28:02.235Z,66.30
2019-04-14T20:30:44.836Z,67.10
2019-04-14T20:33:14.613Z,67.90
2019-04-14T20:35:44.328Z,68.10
2019-04-14T20:38:13.997Z,68.30
2019-04-14T20:40:43.676Z,68.50
2019-04-14T20:43:13.349Z,67.80
2019-04-14T20:45:43.070Z,69.00
2019-04-14T20:48:12.680Z,68.30
2019-04-14T20:50:42.326Z,68.90
2019-04-14T20:53:12.025Z,69.60
2019-04-14T20:55:47.249Z,67.90
2019-04-14T20:58:14.339Z,69.20
2019-04-14T21:00:44.074Z,70.90
2019-04-14T21:03:31.221Z,70.20
2019-04-14T21:06:21.046Z,71.80
2019-04-14T21:09:09.515Z,70.90
2019-04-14T21:11:54.745Z,71.50
2019-04-14T21:14:53.541Z,71.90
2019-04-14T21:17:29.904Z,71.90
2019-04-14T21:20:43.903Z,72.00
2019-04-14T21:23:32.433Z,73.20
2019-04-14T21:26:26.709Z,72.10
2019-04-14T21:29:08.255Z,73.90
2019-04-14T21:31:51.480Z,72.80
2019-04-14T21:34:37.123Z,73.40
2019-04-14T21:37:34.488Z,75.40
2019-04-14T21:40:35.590Z,74.60
2019-04-14T21:43:05.217Z,75.70
2019-04-14T21:45:34.801Z,76.10
2019-04-14T21:48:04.444Z,74.90
2019-04-14T21:50:34.268Z,76.50
2019-04-14T21:53:06.592Z,76.80
2019-04-14T21:55:37.669Z,77.40
2019-04-14T21:58:32.258Z,77.60
2019-04-14T22:01:53.829Z,78.20
2019-04-14T22:04:50.139Z,77.50
2019-04-14T22:07:41.493Z,78.40
2019-04-14T22:10:21.403Z,78.30
2019-04-14T22:12:51.009Z,77.40
2019-04-14T22:15:20.729Z,78.90
2019-04-14T22:17:50.340Z,80.20
2019-04-14T22:20:19.981Z,79.70
2019-04-14T22:22:49.620Z,78.80
2019-04-14T22:25:19.417Z,80.10
2019-04-14T22:27:49.149Z,79.00
2019-04-14T22:30:18.882Z,80.50
2019-04-14T22:32:48.937Z,80.10
2019-04-14T22:35:18.641Z,79.50
2019-04-14T22:37:48.230Z,80.40
2019-04-14T22:40:17.973Z,82.00
2019-04-14T22:42:47.634Z,81.60
2019-04-14T22:45:17.376Z,82.30
2019-04-14T22:47:47.044Z,82.00
2019-04-14T22:50:16.826Z,82.90
2019-04-14T22:52:46.479Z,82.80
2019-04-14T22:55:16.165Z,82.90
2019-04-14T22:57:46.018Z,84.20
2019-04-14T23:00:27.177Z,82.90
2019-04-14T23:03:07.405Z,84.10
2019-04-14T23:05:50.964Z,84.70
2019-04-14T23:08:29.355Z,82.80
2019-04-14T23:11:07.928Z,84.10
2019-04-14T23:13:43.444Z,83.80
2019-04-14T23:16:26.704Z,83.70
2019-04-14T23:19:15.545Z,84.20
2019-04-14T23:22:01.906Z,82.50
2019-04-14T23:24:34.901Z,84.50
2019-04-14T23:27:04.667Z,84.80
2019-04-14T23:29:34.332Z,84.60
2019-04-14T23:32:04.569Z,84.90
2019-04-14T23:34:34.189Z,84.00
2019-04-14T23:37:03.859Z,85.70
2019-04-14T23:39:33.523Z,85.30
2019-04-14T23:42:03.205Z,85.00
2019-04-14T23:44:32.845Z,86.30
2019-04-14T23:47:02.552Z,86.20
2019-04-14T23:49:32.090Z,86.80
2019-04-14T23:52:01.752Z,84.90
2019-04-14T23:54:31.351Z,85.00
2019-04-14T23:57:06.147Z,85.80
2019-04-14T23:59:32.176Z,86.20
